sensor_id;sensor_type;location;lat;lon;timestamp;P1;durP1;ratioP1;P2;durP2;ratioP2
7340;SDS011;6870;50.944;6.932;2023-12-20T00:02:05;6.07;;;3.13;;
7340;SDS011;6870;50.944;6.932;2023-12-20T00:04:33;3.67;;;2.83;;
7340;SDS011;6870;50.944;6.932;2023-12-20T00:07:01;4.20;;;3.27;;
7340;SDS011;6870;50.944;6.932;2023-12-20T00:09:29;4.20;;;3.23;;
7340;SDS011;6870;50.944;6.932;2023-12-20T00:11:57;5.00;;;3.47;;
7340;SDS011;6870;50.944;6.932;2023-12-20T00:14:27;6.77;;;4.10;;
7340;SDS011;6870;50.944;6.932;2023-12-20T00:16:55;4.90;;;3.27;;
7340;SDS011;6870;50.944;6.932;2023-12-20T00:19:23;5.07;;;3.40;;
7340;SDS011;6870;50.944;6.932;2023-12-20T00:21:51;6.43;;;3.00;;
7340;SDS011;6870;50.944;6.932;2023-12-20T00:24:20;5.07;;;3.70;;
7340;SDS011;6870;50.944;6.932;2023-12-20T00:26:47;4.73;;;2.93;;
7340;SDS011;6870;50.944;6.932;2023-12-20T00:29:15;7.90;;;3.20;;
7340;SDS011;6870;50.944;6.932;2023-12-20T00:31:45;5.57;;;3.37;;
7340;SDS011;6870;50.944;6.932;2023-12-20T00:34:13;6.77;;;3.03;;
7340;SDS011;6870;50.944;6.932;2023-12-20T00:36:41;5.33;;;2.70;;
7340;SDS011;6870;50.944;6.932;2023-12-20T00:39:09;5.33;;;3.47;;
7340;SDS011;6870;50.944;6.932;2023-12-20T00:41:37;3.57;;;2.80;;
7340;SDS011;6870;50.944;6.932;2023-12-20T00:44:07;6.30;;;3.00;;
7340;SDS011;6870;50.944;6.932;2023-12-20T00:46:35;4.83;;;2.90;;
7340;SDS011;6870;50.944;6.932;2023-12-20T00:49:05;3.83;;;2.90;;
7340;SDS011;6870;50.944;6.932;2023-12-20T00:51:33;11.53;;;3.07;;
7340;SDS011;6870;50.944;6.932;2023-12-20T00:54:01;4.43;;;3.20;;
7340;SDS011;6870;50.944;6.932;2023-12-20T00:56:29;9.30;;;3.37;;
7340;SDS011;6870;50.944;6.932;2023-12-20T00:58:57;4.30;;;2.83;;
7340;SDS011;6870;50.944;6.932;2023-12-20T01:01:25;4.53;;;2.90;;
7340;SDS011;6870;50.944;6.932;2023-12-20T01:03:53;3.40;;;2.40;;
7340;SDS011;6870;50.944;6.932;2023-12-20T01:06:26;3.80;;;2.73;;
7340;SDS011;6870;50.944;6.932;2023-12-20T01:08:54;3.67;;;2.43;;
7340;SDS011;6870;50.944;6.932;2023-12-20T01:11:22;7.83;;;2.60;;
7340;SDS011;6870;50.944;6.932;2023-12-20T01:13:50;4.97;;;2.57;;
7340;SDS011;6870;50.944;6.932;2023-12-20T01:16:18;4.30;;;2.60;;
7340;SDS011;6870;50.944;6.932;2023-12-20T01:18:47;3.00;;;2.20;;
7340;SDS011;6870;50.944;6.932;2023-12-20T01:21:15;3.70;;;2.80;;
7340;SDS011;6870;50.944;6.932;2023-12-20T01:23:44;4.63;;;2.87;;
7340;SDS011;6870;50.944;6.932;2023-12-20T01:26:12;3.57;;;2.60;;
7340;SDS011;6870;50.944;6.932;2023-12-20T01:28:41;3.10;;;2.30;;
7340;SDS011;6870;50.944;6.932;2023-12-20T01:31:10;3.50;;;2.40;;
7340;SDS011;6870;50.944;6.932;2023-12-20T01:33:38;2.87;;;2.23;;
7340;SDS011;6870;50.944;6.932;2023-12-20T01:36:06;3.50;;;2.63;;
7340;SDS011;6870;50.944;6.932;2023-12-20T01:38:35;5.90;;;2.70;;
7340;SDS011;6870;50.944;6.932;2023-12-20T01:41:04;5.70;;;2.60;;
7340;SDS011;6870;50.944;6.932;2023-12-20T01:43:32;2.43;;;2.23;;
7340;SDS011;6870;50.944;6.932;2023-12-20T01:46:15;4.77;;;2.70;;
7340;SDS011;6870;50.944;6.932;2023-12-20T01:48:47;4.40;;;2.67;;
7340;SDS011;6870;50.944;6.932;2023-12-20T01:51:15;4.87;;;2.67;;
7340;SDS011;6870;50.944;6.932;2023-12-20T01:53:44;5.63;;;2.90;;
7340;SDS011;6870;50.944;6.932;2023-12-20T01:56:14;3.07;;;2.40;;
7340;SDS011;6870;50.944;6.932;2023-12-20T01:58:45;3.37;;;2.63;;
7340;SDS011;6870;50.944;6.932;2023-12-20T02:01:16;4.83;;;1.80;;
7340;SDS011;6870;50.944;6.932;2023-12-20T02:03:44;3.27;;;2.57;;
7340;SDS011;6870;50.944;6.932;2023-12-20T02:06:13;3.57;;;2.60;;
7340;SDS011;6870;50.944;6.932;2023-12-20T02:08:44;3.00;;;2.40;;
7340;SDS011;6870;50.944;6.932;2023-12-20T02:11:12;3.00;;;2.23;;
7340;SDS011;6870;50.944;6.932;2023-12-20T02:13:42;4.23;;;3.00;;
7340;SDS011;6870;50.944;6.932;2023-12-20T02:16:10;3.10;;;2.30;;
7340;SDS011;6870;50.944;6.932;2023-12-20T02:18:39;3.23;;;2.07;;
7340;SDS011;6870;50.944;6.932;2023-12-20T02:21:07;3.60;;;2.70;;
7340;SDS011;6870;50.944;6.932;2023-12-20T02:23:38;3.40;;;2.60;;
7340;SDS011;6870;50.944;6.932;2023-12-20T02:26:06;3.13;;;2.50;;
7340;SDS011;6870;50.944;6.932;2023-12-20T02:28:35;2.53;;;2.10;;
7340;SDS011;6870;50.944;6.932;2023-12-20T02:31:03;4.17;;;2.30;;
7340;SDS011;6870;50.944;6.932;2023-12-20T02:33:31;2.97;;;2.33;;
7340;SDS011;6870;50.944;6.932;2023-12-20T02:35:59;4.60;;;2.57;;
7340;SDS011;6870;50.944;6.932;2023-12-20T02:38:27;2.90;;;1.93;;
7340;SDS011;6870;50.944;6.932;2023-12-20T02:40:57;2.77;;;2.10;;
7340;SDS011;6870;50.944;6.932;2023-12-20T02:43:25;2.50;;;2.00;;
7340;SDS011;6870;50.944;6.932;2023-12-20T02:45:53;4.77;;;2.37;;
7340;SDS011;6870;50.944;6.932;2023-12-20T02:48:21;2.37;;;1.67;;
7340;SDS011;6870;50.944;6.932;2023-12-20T02:50:49;3.03;;;2.13;;
7340;SDS011;6870;50.944;6.932;2023-12-20T02:53:18;4.53;;;1.90;;
7340;SDS011;6870;50.944;6.932;2023-12-20T02:55:47;4.17;;;2.57;;
7340;SDS011;6870;50.944;6.932;2023-12-20T02:58:16;2.57;;;2.20;;
7340;SDS011;6870;50.944;6.932;2023-12-20T03:00:45;3.63;;;2.30;;
7340;SDS011;6870;50.944;6.932;2023-12-20T03:03:13;4.93;;;2.50;;
7340;SDS011;6870;50.944;6.932;2023-12-20T03:05:41;3.10;;;2.23;;
7340;SDS011;6870;50.944;6.932;2023-12-20T03:08:09;3.70;;;2.07;;
7340;SDS011;6870;50.944;6.932;2023-12-20T03:10:38;4.17;;;2.00;;
7340;SDS011;6870;50.944;6.932;2023-12-20T03:13:06;2.30;;;1.90;;
7340;SDS011;6870;50.944;6.932;2023-12-20T03:15:35;2.50;;;2.23;;
7340;SDS011;6870;50.944;6.932;2023-12-20T03:18:04;3.90;;;2.73;;
7340;SDS011;6870;50.944;6.932;2023-12-20T03:20:32;3.70;;;2.33;;
7340;SDS011;6870;50.944;6.932;2023-12-20T03:23:01;3.20;;;2.00;;
7340;SDS011;6870;50.944;6.932;2023-12-20T03:25:29;3.87;;;2.00;;
7340;SDS011;6870;50.944;6.932;2023-12-20T03:27:57;3.00;;;2.00;;
7340;SDS011;6870;50.944;6.932;2023-12-20T03:30:29;2.93;;;2.23;;
7340;SDS011;6870;50.944;6.932;2023-12-20T03:32:58;3.20;;;2.00;;
7340;SDS011;6870;50.944;6.932;2023-12-20T03:35:26;3.17;;;2.43;;
7340;SDS011;6870;50.944;6.932;2023-12-20T03:37:55;2.97;;;1.90;;
7340;SDS011;6870;50.944;6.932;2023-12-20T03:40:23;3.00;;;1.87;;
7340;SDS011;6870;50.944;6.932;2023-12-20T03:42:54;2.90;;;1.73;;
7340;SDS011;6870;50.944;6.932;2023-12-20T03:45:22;2.60;;;1.73;;
7340;SDS011;6870;50.944;6.932;2023-12-20T03:47:50;2.30;;;1.80;;
7340;SDS011;6870;50.944;6.932;2023-12-20T03:50:22;4.60;;;1.83;;
7340;SDS011;6870;50.944;6.932;2023-12-20T03:52:51;2.73;;;1.63;;
7340;SDS011;6870;50.944;6.932;2023-12-20T03:55:19;2.80;;;1.90;;
7340;SDS011;6870;50.944;6.932;2023-12-20T03:57:47;3.77;;;2.23;;
7340;SDS011;6870;50.944;6.932;2023-12-20T04:00:15;2.23;;;1.80;;
7340;SDS011;6870;50.944;6.932;2023-12-20T04:02:43;3.20;;;1.83;;
7340;SDS011;6870;50.944;6.932;2023-12-20T04:05:12;2.10;;;1.73;;
7340;SDS011;6870;50.944;6.932;2023-12-20T04:07:41;1.77;;;1.50;;
7340;SDS011;6870;50.944;6.932;2023-12-20T04:10:12;2.47;;;1.60;;
7340;SDS011;6870;50.944;6.932;2023-12-20T04:12:43;3.97;;;2.00;;
7340;SDS011;6870;50.944;6.932;2023-12-20T04:15:11;3.17;;;2.40;;
7340;SDS011;6870;50.944;6.932;2023-12-20T04:17:39;3.07;;;1.70;;
7340;SDS011;6870;50.944;6.932;2023-12-20T04:20:11;2.50;;;2.10;;
7340;SDS011;6870;50.944;6.932;2023-12-20T04:22:39;4.27;;;2.00;;
7340;SDS011;6870;50.944;6.932;2023-12-20T04:25:10;2.63;;;1.80;;
7340;SDS011;6870;50.944;6.932;2023-12-20T04:27:38;2.10;;;1.53;;
7340;SDS011;6870;50.944;6.932;2023-12-20T04:30:07;3.40;;;1.80;;
7340;SDS011;6870;50.944;6.932;2023-12-20T04:32:36;3.03;;;1.60;;
7340;SDS011;6870;50.944;6.932;2023-12-20T04:35:04;2.70;;;2.10;;
7340;SDS011;6870;50.944;6.932;2023-12-20T04:37:35;5.73;;;1.53;;
7340;SDS011;6870;50.944;6.932;2023-12-20T04:40:06;2.40;;;1.67;;
7340;SDS011;6870;50.944;6.932;2023-12-20T04:42:37;3.13;;;1.83;;
7340;SDS011;6870;50.944;6.932;2023-12-20T04:45:05;2.60;;;1.60;;
7340;SDS011;6870;50.944;6.932;2023-12-20T04:47:36;2.50;;;1.90;;
7340;SDS011;6870;50.944;6.932;2023-12-20T04:50:04;4.10;;;2.07;;
7340;SDS011;6870;50.944;6.932;2023-12-20T04:52:34;13.70;;;2.37;;
7340;SDS011;6870;50.944;6.932;2023-12-20T04:55:02;3.67;;;2.40;;
7340;SDS011;6870;50.944;6.932;2023-12-20T04:57:31;3.07;;;1.53;;
7340;SDS011;6870;50.944;6.932;2023-12-20T05:00:00;4.10;;;2.40;;
7340;SDS011;6870;50.944;6.932;2023-12-20T05:02:29;3.33;;;1.63;;
7340;SDS011;6870;50.944;6.932;2023-12-20T05:04:57;1.90;;;1.63;;
7340;SDS011;6870;50.944;6.932;2023-12-20T05:07:25;2.50;;;1.70;;
7340;SDS011;6870;50.944;6.932;2023-12-20T05:09:54;2.10;;;1.83;;
7340;SDS011;6870;50.944;6.932;2023-12-20T05:12:24;3.50;;;2.00;;
7340;SDS011;6870;50.944;6.932;2023-12-20T05:14:52;3.87;;;1.73;;
7340;SDS011;6870;50.944;6.932;2023-12-20T05:17:21;2.80;;;1.70;;
7340;SDS011;6870;50.944;6.932;2023-12-20T05:19:49;2.60;;;1.40;;
7340;SDS011;6870;50.944;6.932;2023-12-20T05:22:17;3.57;;;1.73;;
7340;SDS011;6870;50.944;6.932;2023-12-20T05:24:47;3.47;;;1.53;;
7340;SDS011;6870;50.944;6.932;2023-12-20T05:27:15;2.37;;;1.43;;
7340;SDS011;6870;50.944;6.932;2023-12-20T05:29:43;3.23;;;2.27;;
7340;SDS011;6870;50.944;6.932;2023-12-20T05:32:11;2.50;;;1.77;;
7340;SDS011;6870;50.944;6.932;2023-12-20T05:34:40;2.93;;;1.20;;
7340;SDS011;6870;50.944;6.932;2023-12-20T05:37:08;3.80;;;1.63;;
7340;SDS011;6870;50.944;6.932;2023-12-20T05:39:37;1.80;;;1.40;;
7340;SDS011;6870;50.944;6.932;2023-12-20T05:42:06;2.03;;;1.50;;
7340;SDS011;6870;50.944;6.932;2023-12-20T05:44:34;2.93;;;1.57;;
7340;SDS011;6870;50.944;6.932;2023-12-20T05:47:02;3.60;;;1.77;;
7340;SDS011;6870;50.944;6.932;2023-12-20T05:49:31;3.13;;;1.47;;
7340;SDS011;6870;50.944;6.932;2023-12-20T05:52:00;2.00;;;1.50;;
7340;SDS011;6870;50.944;6.932;2023-12-20T05:54:28;2.20;;;1.33;;
7340;SDS011;6870;50.944;6.932;2023-12-20T05:56:56;1.90;;;1.33;;
7340;SDS011;6870;50.944;6.932;2023-12-20T05:59:24;2.90;;;1.80;;
7340;SDS011;6870;50.944;6.932;2023-12-20T06:01:52;4.13;;;1.57;;
7340;SDS011;6870;50.944;6.932;2023-12-20T06:04:21;2.93;;;1.70;;
7340;SDS011;6870;50.944;6.932;2023-12-20T06:06:49;1.80;;;1.33;;
7340;SDS011;6870;50.944;6.932;2023-12-20T06:09:18;1.10;;;0.90;;
7340;SDS011;6870;50.944;6.932;2023-12-20T06:11:46;3.97;;;1.50;;
7340;SDS011;6870;50.944;6.932;2023-12-20T06:14:14;5.43;;;1.30;;
7340;SDS011;6870;50.944;6.932;2023-12-20T06:16:43;1.90;;;1.30;;
7340;SDS011;6870;50.944;6.932;2023-12-20T06:19:11;2.50;;;1.27;;
7340;SDS011;6870;50.944;6.932;2023-12-20T06:21:39;2.60;;;1.50;;
7340;SDS011;6870;50.944;6.932;2023-12-20T06:24:10;1.93;;;1.20;;
7340;SDS011;6870;50.944;6.932;2023-12-20T06:26:40;2.37;;;1.63;;
7340;SDS011;6870;50.944;6.932;2023-12-20T06:29:08;2.10;;;1.10;;
7340;SDS011;6870;50.944;6.932;2023-12-20T06:31:36;3.00;;;1.17;;
7340;SDS011;6870;50.944;6.932;2023-12-20T06:34:04;4.60;;;1.40;;
7340;SDS011;6870;50.944;6.932;2023-12-20T06:36:32;4.27;;;2.03;;
7340;SDS011;6870;50.944;6.932;2023-12-20T06:39:00;3.00;;;1.63;;
7340;SDS011;6870;50.944;6.932;2023-12-20T06:41:28;4.30;;;2.10;;
7340;SDS011;6870;50.944;6.932;2023-12-20T06:43:57;3.73;;;2.13;;
7340;SDS011;6870;50.944;6.932;2023-12-20T06:46:25;6.17;;;2.10;;
7340;SDS011;6870;50.944;6.932;2023-12-20T06:48:53;5.57;;;1.90;;
7340;SDS011;6870;50.944;6.932;2023-12-20T06:51:21;4.13;;;2.10;;
7340;SDS011;6870;50.944;6.932;2023-12-20T06:53:51;5.70;;;2.53;;
7340;SDS011;6870;50.944;6.932;2023-12-20T06:56:18;3.80;;;2.20;;
7340;SDS011;6870;50.944;6.932;2023-12-20T06:58:47;4.63;;;2.47;;
7340;SDS011;6870;50.944;6.932;2023-12-20T07:01:16;8.10;;;2.30;;
7340;SDS011;6870;50.944;6.932;2023-12-20T07:03:44;7.07;;;2.37;;
7340;SDS011;6870;50.944;6.932;2023-12-20T07:06:12;9.00;;;2.50;;
7340;SDS011;6870;50.944;6.932;2023-12-20T07:08:43;4.90;;;1.73;;
7340;SDS011;6870;50.944;6.932;2023-12-20T07:11:11;5.20;;;1.80;;
7340;SDS011;6870;50.944;6.932;2023-12-20T07:13:39;6.40;;;2.20;;
7340;SDS011;6870;50.944;6.932;2023-12-20T07:16:07;4.70;;;2.30;;
7340;SDS011;6870;50.944;6.932;2023-12-20T07:18:36;4.10;;;1.47;;
7340;SDS011;6870;50.944;6.932;2023-12-20T07:21:04;2.33;;;1.63;;
7340;SDS011;6870;50.944;6.932;2023-12-20T07:23:34;2.10;;;1.53;;
7340;SDS011;6870;50.944;6.932;2023-12-20T07:26:02;7.30;;;1.73;;
7340;SDS011;6870;50.944;6.932;2023-12-20T07:28:31;5.10;;;1.83;;
7340;SDS011;6870;50.944;6.932;2023-12-20T07:30:59;6.53;;;2.00;;
7340;SDS011;6870;50.944;6.932;2023-12-20T07:33:28;4.53;;;2.00;;
7340;SDS011;6870;50.944;6.932;2023-12-20T07:36:06;5.60;;;2.20;;
7340;SDS011;6870;50.944;6.932;2023-12-20T07:38:35;3.80;;;2.00;;
7340;SDS011;6870;50.944;6.932;2023-12-20T07:41:03;3.57;;;2.13;;
7340;SDS011;6870;50.944;6.932;2023-12-20T07:43:31;5.00;;;2.03;;
7340;SDS011;6870;50.944;6.932;2023-12-20T07:46:03;3.00;;;1.47;;
7340;SDS011;6870;50.944;6.932;2023-12-20T07:48:33;2.70;;;1.63;;
7340;SDS011;6870;50.944;6.932;2023-12-20T07:51:02;3.30;;;2.33;;
7340;SDS011;6870;50.944;6.932;2023-12-20T07:53:31;3.67;;;1.67;;
7340;SDS011;6870;50.944;6.932;2023-12-20T07:56:00;5.53;;;2.00;;
7340;SDS011;6870;50.944;6.932;2023-12-20T07:58:28;3.93;;;1.47;;
7340;SDS011;6870;50.944;6.932;2023-12-20T08:01:15;7.10;;;2.00;;
7340;SDS011;6870;50.944;6.932;2023-12-20T08:03:44;4.77;;;2.00;;
7340;SDS011;6870;50.944;6.932;2023-12-20T08:06:12;4.83;;;2.03;;
7340;SDS011;6870;50.944;6.932;2023-12-20T08:08:42;7.10;;;2.37;;
7340;SDS011;6870;50.944;6.932;2023-12-20T08:11:10;4.47;;;1.80;;
7340;SDS011;6870;50.944;6.932;2023-12-20T08:13:38;4.50;;;2.33;;
7340;SDS011;6870;50.944;6.932;2023-12-20T08:16:06;3.70;;;1.93;;
7340;SDS011;6870;50.944;6.932;2023-12-20T08:18:35;3.30;;;1.73;;
7340;SDS011;6870;50.944;6.932;2023-12-20T08:21:03;4.73;;;2.20;;
7340;SDS011;6870;50.944;6.932;2023-12-20T08:23:34;4.03;;;1.80;;
7340;SDS011;6870;50.944;6.932;2023-12-20T08:26:04;3.13;;;1.57;;
7340;SDS011;6870;50.944;6.932;2023-12-20T08:28:33;4.00;;;1.90;;
7340;SDS011;6870;50.944;6.932;2023-12-20T08:31:01;33.27;;;3.80;;
7340;SDS011;6870;50.944;6.932;2023-12-20T08:33:29;4.13;;;1.70;;
7340;SDS011;6870;50.944;6.932;2023-12-20T08:35:58;4.97;;;2.20;;
7340;SDS011;6870;50.944;6.932;2023-12-20T08:38:26;4.23;;;2.20;;
7340;SDS011;6870;50.944;6.932;2023-12-20T08:40:54;5.40;;;2.13;;
7340;SDS011;6870;50.944;6.932;2023-12-20T08:43:23;2.93;;;1.97;;
7340;SDS011;6870;50.944;6.932;2023-12-20T08:45:51;4.40;;;1.93;;
7340;SDS011;6870;50.944;6.932;2023-12-20T08:48:19;5.27;;;2.50;;
7340;SDS011;6870;50.944;6.932;2023-12-20T08:50:48;5.90;;;2.27;;
7340;SDS011;6870;50.944;6.932;2023-12-20T08:53:18;4.90;;;2.07;;
7340;SDS011;6870;50.944;6.932;2023-12-20T08:55:46;3.73;;;1.80;;
7340;SDS011;6870;50.944;6.932;2023-12-20T08:58:14;6.73;;;1.80;;
7340;SDS011;6870;50.944;6.932;2023-12-20T09:00:44;4.37;;;2.03;;
7340;SDS011;6870;50.944;6.932;2023-12-20T09:03:12;4.43;;;2.40;;
7340;SDS011;6870;50.944;6.932;2023-12-20T09:05:40;5.00;;;2.10;;
7340;SDS011;6870;50.944;6.932;2023-12-20T09:08:09;4.17;;;2.10;;
7340;SDS011;6870;50.944;6.932;2023-12-20T09:10:37;2.87;;;1.67;;
7340;SDS011;6870;50.944;6.932;2023-12-20T09:13:05;3.87;;;2.17;;
7340;SDS011;6870;50.944;6.932;2023-12-20T09:15:33;3.93;;;1.60;;
7340;SDS011;6870;50.944;6.932;2023-12-20T09:18:04;4.43;;;2.40;;
7340;SDS011;6870;50.944;6.932;2023-12-20T09:20:32;4.73;;;1.87;;
7340;SDS011;6870;50.944;6.932;2023-12-20T09:23:01;3.97;;;2.20;;
7340;SDS011;6870;50.944;6.932;2023-12-20T09:25:29;4.20;;;2.00;;
7340;SDS011;6870;50.944;6.932;2023-12-20T09:27:57;5.47;;;2.00;;
7340;SDS011;6870;50.944;6.932;2023-12-20T09:30:25;10.00;;;2.63;;
7340;SDS011;6870;50.944;6.932;2023-12-20T09:32:53;4.00;;;1.93;;
7340;SDS011;6870;50.944;6.932;2023-12-20T09:35:23;11.03;;;2.23;;
7340;SDS011;6870;50.944;6.932;2023-12-20T09:37:53;3.40;;;1.83;;
7340;SDS011;6870;50.944;6.932;2023-12-20T09:40:21;3.10;;;2.03;;
7340;SDS011;6870;50.944;6.932;2023-12-20T09:42:55;4.10;;;2.50;;
7340;SDS011;6870;50.944;6.932;2023-12-20T09:45:25;2.37;;;1.80;;
7340;SDS011;6870;50.944;6.932;2023-12-20T09:47:53;3.97;;;1.90;;
7340;SDS011;6870;50.944;6.932;2023-12-20T09:50:23;4.07;;;2.20;;
7340;SDS011;6870;50.944;6.932;2023-12-20T09:52:52;6.90;;;2.33;;
7340;SDS011;6870;50.944;6.932;2023-12-20T09:55:22;4.97;;;2.20;;
7340;SDS011;6870;50.944;6.932;2023-12-20T09:57:54;6.47;;;2.47;;
7340;SDS011;6870;50.944;6.932;2023-12-20T10:00:23;7.73;;;2.50;;
7340;SDS011;6870;50.944;6.932;2023-12-20T10:02:53;5.23;;;2.40;;
7340;SDS011;6870;50.944;6.932;2023-12-20T10:05:27;4.63;;;2.00;;
7340;SDS011;6870;50.944;6.932;2023-12-20T10:07:57;3.93;;;2.10;;
7340;SDS011;6870;50.944;6.932;2023-12-20T10:10:27;4.13;;;2.50;;
7340;SDS011;6870;50.944;6.932;2023-12-20T10:13:10;3.33;;;2.00;;
7340;SDS011;6870;50.944;6.932;2023-12-20T10:15:40;3.90;;;2.13;;
7340;SDS011;6870;50.944;6.932;2023-12-20T10:18:09;3.43;;;2.10;;
7340;SDS011;6870;50.944;6.932;2023-12-20T10:20:39;3.20;;;1.73;;
7340;SDS011;6870;50.944;6.932;2023-12-20T10:23:10;10.40;;;2.27;;
7340;SDS011;6870;50.944;6.932;2023-12-20T10:25:39;6.20;;;2.20;;
7340;SDS011;6870;50.944;6.932;2023-12-20T10:28:08;2.67;;;2.13;;
7340;SDS011;6870;50.944;6.932;2023-12-20T10:30:39;5.03;;;2.70;;
7340;SDS011;6870;50.944;6.932;2023-12-20T10:33:09;3.63;;;2.43;;
7340;SDS011;6870;50.944;6.932;2023-12-20T10:35:39;4.57;;;2.47;;
7340;SDS011;6870;50.944;6.932;2023-12-20T10:38:12;2.73;;;1.80;;
7340;SDS011;6870;50.944;6.932;2023-12-20T10:40:42;4.23;;;2.20;;
7340;SDS011;6870;50.944;6.932;2023-12-20T10:43:12;5.00;;;2.13;;
7340;SDS011;6870;50.944;6.932;2023-12-20T10:45:42;4.03;;;1.93;;
7340;SDS011;6870;50.944;6.932;2023-12-20T10:48:10;5.70;;;1.90;;
7340;SDS011;6870;50.944;6.932;2023-12-20T10:50:40;4.17;;;2.23;;
7340;SDS011;6870;50.944;6.932;2023-12-20T10:53:08;3.40;;;1.50;;
7340;SDS011;6870;50.944;6.932;2023-12-20T10:55:38;6.57;;;2.10;;
7340;SDS011;6870;50.944;6.932;2023-12-20T10:58:07;4.50;;;2.03;;
7340;SDS011;6870;50.944;6.932;2023-12-20T11:00:37;4.77;;;2.27;;
7340;SDS011;6870;50.944;6.932;2023-12-20T11:03:09;6.30;;;2.50;;
7340;SDS011;6870;50.944;6.932;2023-12-20T11:05:43;3.80;;;1.73;;
7340;SDS011;6870;50.944;6.932;2023-12-20T11:08:17;4.20;;;2.13;;
7340;SDS011;6870;50.944;6.932;2023-12-20T11:10:55;24.17;;;3.83;;
7340;SDS011;6870;50.944;6.932;2023-12-20T11:13:31;4.03;;;2.13;;
7340;SDS011;6870;50.944;6.932;2023-12-20T11:16:04;3.80;;;2.50;;
7340;SDS011;6870;50.944;6.932;2023-12-20T11:18:34;5.10;;;1.90;;
7340;SDS011;6870;50.944;6.932;2023-12-20T11:21:04;3.33;;;1.90;;
7340;SDS011;6870;50.944;6.932;2023-12-20T11:23:32;3.67;;;1.80;;
7340;SDS011;6870;50.944;6.932;2023-12-20T11:26:01;3.43;;;2.07;;
7340;SDS011;6870;50.944;6.932;2023-12-20T11:28:30;7.17;;;3.03;;
7340;SDS011;6870;50.944;6.932;2023-12-20T11:31:00;3.17;;;1.90;;
7340;SDS011;6870;50.944;6.932;2023-12-20T11:33:30;2.60;;;1.93;;
7340;SDS011;6870;50.944;6.932;2023-12-20T11:36:13;4.23;;;2.17;;
7340;SDS011;6870;50.944;6.932;2023-12-20T11:38:49;3.40;;;2.37;;
7340;SDS011;6870;50.944;6.932;2023-12-20T11:41:23;8.07;;;2.57;;
7340;SDS011;6870;50.944;6.932;2023-12-20T11:43:53;9.23;;;2.90;;
7340;SDS011;6870;50.944;6.932;2023-12-20T11:46:21;5.90;;;2.47;;
7340;SDS011;6870;50.944;6.932;2023-12-20T11:48:51;7.10;;;2.70;;
7340;SDS011;6870;50.944;6.932;2023-12-20T11:51:20;3.30;;;1.83;;
7340;SDS011;6870;50.944;6.932;2023-12-20T11:53:51;6.63;;;2.30;;
7340;SDS011;6870;50.944;6.932;2023-12-20T11:56:19;4.27;;;2.10;;
7340;SDS011;6870;50.944;6.932;2023-12-20T11:58:50;4.10;;;2.47;;
7340;SDS011;6870;50.944;6.932;2023-12-20T12:01:19;4.50;;;2.70;;
7340;SDS011;6870;50.944;6.932;2023-12-20T12:03:48;6.07;;;2.30;;
7340;SDS011;6870;50.944;6.932;2023-12-20T12:06:16;5.00;;;2.30;;
7340;SDS011;6870;50.944;6.932;2023-12-20T12:08:46;5.43;;;2.00;;
7340;SDS011;6870;50.944;6.932;2023-12-20T12:11:14;4.80;;;2.20;;
7340;SDS011;6870;50.944;6.932;2023-12-20T12:13:42;6.73;;;1.90;;
7340;SDS011;6870;50.944;6.932;2023-12-20T12:16:10;5.47;;;2.00;;
7340;SDS011;6870;50.944;6.932;2023-12-20T12:18:38;2.87;;;1.80;;
7340;SDS011;6870;50.944;6.932;2023-12-20T12:21:08;5.03;;;2.37;;
7340;SDS011;6870;50.944;6.932;2023-12-20T12:23:49;5.30;;;2.50;;
7340;SDS011;6870;50.944;6.932;2023-12-20T12:26:17;4.97;;;2.30;;
7340;SDS011;6870;50.944;6.932;2023-12-20T12:28:46;3.77;;;2.30;;
7340;SDS011;6870;50.944;6.932;2023-12-20T12:31:14;4.30;;;1.90;;
7340;SDS011;6870;50.944;6.932;2023-12-20T12:33:43;6.03;;;2.07;;
7340;SDS011;6870;50.944;6.932;2023-12-20T12:36:12;4.47;;;1.73;;
7340;SDS011;6870;50.944;6.932;2023-12-20T12:38:42;3.03;;;1.60;;
7340;SDS011;6870;50.944;6.932;2023-12-20T12:41:13;7.97;;;2.40;;
7340;SDS011;6870;50.944;6.932;2023-12-20T12:43:42;8.67;;;2.20;;
7340;SDS011;6870;50.944;6.932;2023-12-20T12:46:10;3.80;;;1.90;;
7340;SDS011;6870;50.944;6.932;2023-12-20T12:48:39;3.80;;;2.00;;
7340;SDS011;6870;50.944;6.932;2023-12-20T12:51:11;3.20;;;1.90;;
7340;SDS011;6870;50.944;6.932;2023-12-20T12:53:39;5.53;;;2.33;;
7340;SDS011;6870;50.944;6.932;2023-12-20T12:56:07;7.20;;;2.33;;
7340;SDS011;6870;50.944;6.932;2023-12-20T12:58:37;3.83;;;2.33;;
7340;SDS011;6870;50.944;6.932;2023-12-20T13:01:05;4.03;;;2.50;;
7340;SDS011;6870;50.944;6.932;2023-12-20T13:03:34;5.70;;;2.07;;
7340;SDS011;6870;50.944;6.932;2023-12-20T13:06:02;5.37;;;2.40;;
7340;SDS011;6870;50.944;6.932;2023-12-20T13:08:32;4.00;;;2.00;;
7340;SDS011;6870;50.944;6.932;2023-12-20T13:11:00;4.67;;;2.30;;
7340;SDS011;6870;50.944;6.932;2023-12-20T13:13:30;4.67;;;2.10;;
7340;SDS011;6870;50.944;6.932;2023-12-20T13:16:00;5.03;;;2.20;;
7340;SDS011;6870;50.944;6.932;2023-12-20T13:18:30;3.80;;;2.20;;
7340;SDS011;6870;50.944;6.932;2023-12-20T13:20:58;2.87;;;1.90;;
7340;SDS011;6870;50.944;6.932;2023-12-20T13:23:26;5.50;;;2.60;;
7340;SDS011;6870;50.944;6.932;2023-12-20T13:25:57;7.37;;;2.70;;
7340;SDS011;6870;50.944;6.932;2023-12-20T13:28:25;5.17;;;2.60;;
7340;SDS011;6870;50.944;6.932;2023-12-20T13:30:53;5.73;;;2.57;;
7340;SDS011;6870;50.944;6.932;2023-12-20T13:33:23;7.40;;;2.70;;
7340;SDS011;6870;50.944;6.932;2023-12-20T13:35:51;3.40;;;2.50;;
7340;SDS011;6870;50.944;6.932;2023-12-20T13:38:19;2.87;;;2.00;;
7340;SDS011;6870;50.944;6.932;2023-12-20T13:40:47;3.73;;;2.23;;
7340;SDS011;6870;50.944;6.932;2023-12-20T13:43:15;4.33;;;2.30;;
7340;SDS011;6870;50.944;6.932;2023-12-20T13:45:47;3.80;;;2.10;;
7340;SDS011;6870;50.944;6.932;2023-12-20T13:48:15;4.73;;;2.67;;
7340;SDS011;6870;50.944;6.932;2023-12-20T13:50:45;4.90;;;2.47;;
7340;SDS011;6870;50.944;6.932;2023-12-20T13:53:13;4.50;;;2.37;;
7340;SDS011;6870;50.944;6.932;2023-12-20T13:55:41;3.20;;;2.10;;
7340;SDS011;6870;50.944;6.932;2023-12-20T13:58:09;3.77;;;2.57;;
7340;SDS011;6870;50.944;6.932;2023-12-20T14:00:37;4.57;;;2.63;;
7340;SDS011;6870;50.944;6.932;2023-12-20T14:03:05;5.20;;;2.27;;
7340;SDS011;6870;50.944;6.932;2023-12-20T14:05:35;4.10;;;2.27;;
7340;SDS011;6870;50.944;6.932;2023-12-20T14:08:05;4.60;;;2.47;;
7340;SDS011;6870;50.944;6.932;2023-12-20T14:10:34;5.53;;;2.60;;
7340;SDS011;6870;50.944;6.932;2023-12-20T14:13:03;3.30;;;2.10;;
7340;SDS011;6870;50.944;6.932;2023-12-20T14:15:31;5.53;;;2.20;;
7340;SDS011;6870;50.944;6.932;2023-12-20T14:18:04;2.90;;;1.70;;
7340;SDS011;6870;50.944;6.932;2023-12-20T14:20:34;3.20;;;2.17;;
7340;SDS011;6870;50.944;6.932;2023-12-20T14:23:02;3.00;;;2.17;;
7340;SDS011;6870;50.944;6.932;2023-12-20T14:25:32;5.57;;;2.10;;
7340;SDS011;6870;50.944;6.932;2023-12-20T14:28:17;2.97;;;2.40;;
7340;SDS011;6870;50.944;6.932;2023-12-20T14:30:45;4.37;;;2.10;;
7340;SDS011;6870;50.944;6.932;2023-12-20T14:33:15;3.83;;;1.90;;
7340;SDS011;6870;50.944;6.932;2023-12-20T14:35:43;3.33;;;1.57;;
7340;SDS011;6870;50.944;6.932;2023-12-20T14:38:13;3.13;;;2.10;;
7340;SDS011;6870;50.944;6.932;2023-12-20T14:40:41;4.10;;;1.60;;
7340;SDS011;6870;50.944;6.932;2023-12-20T14:43:09;4.50;;;2.37;;
7340;SDS011;6870;50.944;6.932;2023-12-20T14:45:38;2.53;;;1.83;;
7340;SDS011;6870;50.944;6.932;2023-12-20T14:48:06;11.97;;;2.07;;
7340;SDS011;6870;50.944;6.932;2023-12-20T14:50:36;4.10;;;2.13;;
7340;SDS011;6870;50.944;6.932;2023-12-20T14:53:04;4.57;;;1.63;;
7340;SDS011;6870;50.944;6.932;2023-12-20T14:55:34;3.27;;;2.50;;
7340;SDS011;6870;50.944;6.932;2023-12-20T14:58:02;2.67;;;1.70;;
7340;SDS011;6870;50.944;6.932;2023-12-20T15:00:31;4.53;;;2.20;;
7340;SDS011;6870;50.944;6.932;2023-12-20T15:03:01;2.50;;;1.90;;
7340;SDS011;6870;50.944;6.932;2023-12-20T15:05:30;3.83;;;2.20;;
7340;SDS011;6870;50.944;6.932;2023-12-20T15:07:58;3.80;;;2.40;;
7340;SDS011;6870;50.944;6.932;2023-12-20T15:10:27;3.60;;;2.30;;
7340;SDS011;6870;50.944;6.932;2023-12-20T15:12:59;3.83;;;2.70;;
7340;SDS011;6870;50.944;6.932;2023-12-20T15:15:27;3.60;;;1.77;;
7340;SDS011;6870;50.944;6.932;2023-12-20T15:17:55;3.23;;;2.17;;
7340;SDS011;6870;50.944;6.932;2023-12-20T15:20:23;4.50;;;1.90;;
7340;SDS011;6870;50.944;6.932;2023-12-20T15:22:54;2.37;;;2.00;;
7340;SDS011;6870;50.944;6.932;2023-12-20T15:25:25;4.17;;;2.33;;
7340;SDS011;6870;50.944;6.932;2023-12-20T15:27:53;4.97;;;1.93;;